Time;durP1;ratioP1;P1;durP2;ratioP2;P2;SDS_P1;SDS_P2;PMS_P1;PMS_P2;Temp;Humidity;BMP_temperature;BMP_pressure;BME280_temperature;BME280_humidity;BME280_pressure;Samples;Min_cycle;Max_cycle;Signal;HPM_P1;HPM_P2
2022/06/24 00:02:02;;;;;;;17.75;9.68;;;20.10;99.90;;;19.64;100.00;100071.22;5028946;28;20249;-65
2022/06/24 00:04:55;;;;;;;17.10;9.95;;;20.00;99.90;;;19.42;100.00;100071.00;5040859;28;20201;-65
2022/06/24 00:07:49;;;;;;;16.00;9.27;;;19.80;99.90;;;19.31;100.00;100072.28;5027747;28;20198;-65
2022/06/24 00:10:37;;;;;;;22.15;8.50;;;19.70;99.90;;;19.43;100.00;100093.34;5036261;28;20579;-65
2022/06/24 00:13:39;;;;;;;15.73;5.85;;;19.70;99.90;;;19.40;100.00;100107.72;5032628;28;20223;-66
2022/06/24 00:16:27;;;;;;;15.13;5.95;;;19.60;99.90;;;19.31;100.00;100118.75;5042319;28;20203;-65
2022/06/24 00:19:15;;;;;;;12.73;5.57;;;19.50;99.90;;;19.32;100.00;100150.00;5048164;28;20203;-65
2022/06/24 00:22:12;;;;;;;6.13;3.70;;;19.50;99.90;;;19.28;100.00;100166.22;5014008;28;20234;-64
2022/06/24 00:25:22;;;;;;;14.10;4.30;;;19.50;99.90;;;19.12;100.00;100198.84;5029911;28;20202;-65
2022/06/24 00:28:12;;;;;;;13.18;4.50;;;19.40;99.90;;;19.19;100.00;100215.63;5021086;28;20206;-64
2022/06/24 00:31:03;;;;;;;13.95;4.38;;;19.40;99.90;;;19.11;100.00;100212.28;5024493;28;20198;-64
2022/06/24 00:33:51;;;;;;;12.95;4.00;;;19.40;99.90;;;19.19;100.00;100219.19;5035038;28;20223;-65
2022/06/24 00:36:39;;;;;;;15.40;4.35;;;19.30;99.90;;;19.11;100.00;100231.94;5038157;28;20202;-64
2022/06/24 00:39:35;;;;;;;13.25;4.03;;;19.30;99.90;;;19.22;100.00;100260.22;5025680;28;20205;-65
2022/06/24 00:42:25;;;;;;;15.32;4.72;;;19.30;99.90;;;19.12;100.00;100259.63;5023118;28;20242;-64
2022/06/24 00:45:32;;;;;;;16.38;4.25;;;19.30;99.90;;;19.14;100.00;100280.09;5022901;28;20206;-65
2022/06/24 00:48:22;;;;;;;16.75;3.95;;;19.20;99.90;;;19.18;100.00;100262.13;5034274;28;20214;-65
2022/06/24 00:51:10;;;;;;;15.98;3.65;;;19.20;99.90;;;19.03;100.00;100257.19;5042077;28;20672;-65
2022/06/24 00:54:06;;;;;;;13.40;3.10;;;19.20;99.90;;;19.17;100.00;100269.28;5028178;28;20216;-64
2022/06/24 00:56:56;;;;;;;11.00;2.33;;;19.20;99.90;;;19.31;100.00;100281.41;5025285;28;20194;-64
2022/06/24 00:59:47;;;;;;;11.68;2.50;;;19.30;99.90;;;19.32;100.00;100286.72;5031585;28;20548;-64
2022/06/24 01:02:35;;;;;;;8.18;1.85;;;19.30;99.90;;;19.11;100.00;100261.44;5037094;28;20223;-64
2022/06/24 01:05:31;;;;;;;7.28;1.67;;;19.30;99.90;;;19.21;100.00;100270.09;5029767;28;20213;-65
2022/06/24 01:08:19;;;;;;;12.25;2.63;;;19.30;99.90;;;19.22;100.00;100266.47;5041180;28;20217;-64
2022/06/24 01:11:07;;;;;;;14.13;3.05;;;19.30;99.90;;;19.26;100.00;100252.06;5021263;28;20214;-65
2022/06/24 01:13:56;;;;;;;13.32;3.05;;;19.30;99.90;;;19.13;100.00;100248.84;5046168;28;20736;-64
2022/06/24 01:16:44;;;;;;;12.68;2.75;;;19.30;99.90;;;19.12;100.00;100255.13;5044768;28;20199;-65
2022/06/24 01:19:33;;;;;;;14.02;3.28;;;19.20;99.90;;;18.93;100.00;100247.66;5025737;28;20195;-64
2022/06/24 01:22:26;;;;;;;12.88;2.78;;;19.20;99.90;;;19.11;100.00;100261.44;5044187;28;20222;-65
2022/06/24 01:25:15;;;;;;;11.07;2.42;;;19.20;99.90;;;19.14;100.00;100261.34;5020226;28;20207;-65
2022/06/24 01:28:03;;;;;;;11.57;2.30;;;19.20;99.90;;;18.92;100.00;100254.81;5022824;28;20695;-65
2022/06/24 01:30:51;;;;;;;13.45;3.00;;;19.20;99.90;;;18.76;100.00;100253.50;5043157;28;20195;-64
2022/06/24 01:33:39;;;;;;;13.00;2.83;;;19.00;99.90;;;18.86;100.00;100261.22;5011036;28;20234;-65
2022/06/24 01:36:27;;;;;;;11.02;2.42;;;19.50;99.90;;;19.07;100.00;100274.97;5032863;28;20195;-65
2022/06/24 01:39:16;;;;;;;11.80;2.67;;;19.00;99.90;;;18.81;100.00;100268.53;5025515;28;20213;-64
2022/06/24 01:42:05;;;;;;;12.20;2.65;;;18.90;99.90;;;18.83;100.00;100279.19;5046030;28;20217;-65
2022/06/24 01:44:54;;;;;;;15.52;3.45;;;18.90;99.90;;;18.79;100.00;100270.38;5041137;28;20206;-64
2022/06/24 01:47:42;;;;;;;11.23;2.47;;;18.90;99.90;;;18.81;100.00;100281.91;5024262;28;20664;-64
2022/06/24 01:50:30;;;;;;;11.63;2.55;;;18.90;99.90;;;18.78;100.00;100281.13;5022539;28;20217;-64
2022/06/24 01:53:18;;;;;;;12.55;2.83;;;18.80;99.90;;;18.77;100.00;100282.03;5043935;28;20226;-64
2022/06/24 01:56:06;;;;;;;11.70;2.55;;;18.80;99.90;;;18.75;100.00;100286.56;5024849;28;20199;-64
2022/06/24 01:58:55;;;;;;;16.15;3.63;;;18.80;99.90;;;18.68;100.00;100277.81;5032414;28;20216;-64
2022/06/24 02:01:43;;;;;;;14.05;3.22;;;18.80;99.90;;;18.68;100.00;100269.78;5039848;28;20199;-64
2022/06/24 02:04:31;;;;;;;6.75;1.52;;;18.70;99.90;;;18.70;100.00;100269.72;5025423;28;20229;-64
2022/06/24 02:07:20;;;;;;;14.07;3.05;;;18.70;99.90;;;18.60;100.00;100254.78;5024446;28;20202;-64
2022/06/24 02:13:28;;;;;;;13.02;2.88;;;18.70;99.90;;;18.67;100.00;100261.78;5044125;28;20214;-65
2022/06/24 02:16:18;;;;;;;16.10;3.55;;;18.60;99.90;;;18.61;100.00;100244.06;5022234;28;20678;-65
2022/06/24 02:19:08;;;;;;;14.27;3.15;;;18.60;99.90;;;18.67;100.00;100251.94;5025711;28;20205;-64
2022/06/24 02:21:56;;;;;;;13.68;3.10;;;18.60;99.90;;;18.62;100.00;100244.97;5032258;28;20230;-64
2022/06/24 02:24:44;;;;;;;16.02;3.55;;;18.60;99.90;;;18.56;100.00;100248.63;5048079;28;20290;-65
2022/06/24 02:27:32;;;;;;;13.90;3.20;;;18.60;99.90;;;18.49;100.00;100236.34;5032919;28;20233;-65
2022/06/24 02:30:23;;;;;;;9.63;2.30;;;18.60;99.90;;;18.49;100.00;100236.34;5040207;28;20206;-64
2022/06/24 02:33:14;;;;;;;14.95;3.35;;;18.60;99.90;;;18.53;100.00;100246.03;5019237;28;20230;-65
2022/06/24 02:36:03;;;;;;;19.50;4.18;;;18.50;99.90;;;18.45;100.00;100240.91;5035588;28;20202;-64
2022/06/24 02:38:51;;;;;;;12.50;2.72;;;18.50;99.90;;;18.46;100.00;100252.47;5026120;28;20194;-64
2022/06/24 02:41:39;;;;;;;15.45;3.20;;;18.50;99.90;;;18.48;100.00;100245.28;5027267;28;20194;-64
2022/06/24 02:44:28;;;;;;;14.43;3.10;;;18.50;99.90;;;18.37;100.00;100248.25;5049724;28;20209;-64
2022/06/24 02:47:16;;;;;;;15.07;3.38;;;18.40;99.90;;;18.42;100.00;100245.44;5032363;28;20202;-65
2022/06/24 02:50:04;;;;;;;15.32;3.55;;;18.40;99.90;;;18.43;100.00;100247.22;5034961;28;20554;-64
2022/06/24 02:52:52;;;;;;;13.02;3.22;;;18.40;99.90;;;18.36;100.00;100241.13;5038403;28;20227;-65
2022/06/24 02:55:42;;;;;;;14.27;3.75;;;18.40;99.90;;;18.28;100.00;100250.28;5009620;28;20221;-64
2022/06/24 02:58:31;;;;;;;10.48;3.13;;;18.30;99.90;;;18.30;100.00;100264.50;5025069;28;20203;-65
2022/06/24 03:01:19;;;;;;;12.02;3.67;;;18.30;99.90;;;18.30;100.00;100262.72;5027434;28;20206;-65
2022/06/24 03:04:07;;;;;;;5.13;1.98;;;18.20;99.90;;;18.29;100.00;100246.69;5027806;28;20204;-64
2022/06/24 03:06:56;;;;;;;7.30;2.75;;;18.30;99.90;;;18.26;100.00;100244.97;5038352;28;20198;-64
2022/06/24 03:09:44;;;;;;;11.57;3.60;;;18.30;99.90;;;18.28;100.00;100245.81;5044661;28;20199;-64
2022/06/24 03:12:32;;;;;;;15.07;4.55;;;18.20;99.90;;;18.22;100.00;100240.59;5035410;28;20226;-64
2022/06/24 03:15:21;;;;;;;14.30;4.75;;;18.20;99.90;;;18.15;100.00;100242.53;5041633;28;20222;-64
2022/06/24 03:18:11;;;;;;;13.13;4.30;;;18.20;99.90;;;18.18;100.00;100246.91;5023280;28;20199;-64
2022/06/24 03:20:59;;;;;;;15.27;4.80;;;18.20;99.90;;;18.25;100.00;100261.06;5011285;28;20206;-64
2022/06/24 03:23:48;;;;;;;15.30;4.57;;;18.20;99.90;;;18.20;100.00;100256.69;5037324;28;20241;-64
2022/06/24 03:26:36;;;;;;;5.93;2.88;;;18.20;99.90;;;18.09;100.00;100256.06;5008202;28;20211;-65
2022/06/24 03:29:32;;;;;;;13.75;4.47;;;18.10;99.90;;;18.16;100.00;100262.13;5022456;28;20568;-64
2022/06/24 03:32:22;;;;;;;13.98;3.72;;;18.10;99.90;;;18.01;100.00;100247.34;5034590;28;20232;-65
2022/06/24 03:35:14;;;;;;;7.43;3.60;;;18.10;99.90;;;18.04;100.00;100265.13;5035959;28;20222;-64
2022/06/24 03:38:02;;;;;;;11.20;4.18;;;18.00;99.90;;;17.98;100.00;100267.94;5031446;28;20206;-64
2022/06/24 03:40:50;;;;;;;17.80;5.63;;;18.00;99.90;;;17.98;100.00;100287.53;5023359;28;20920;-64
2022/06/24 03:43:39;;;;;;;12.63;5.05;;;18.00;99.90;;;18.08;100.00;100296.25;5044326;28;20227;-64
2022/06/24 03:46:27;;;;;;;14.18;5.05;;;18.00;99.90;;;18.13;100.00;100294.31;5036584;28;20209;-65
2022/06/24 03:49:15;;;;;;;12.80;5.38;;;18.00;99.90;;;18.14;100.00;100294.28;5021959;28;20203;-65
2022/06/24 03:52:04;;;;;;;12.82;5.40;;;18.10;99.90;;;18.07;100.00;100284.66;5027983;28;20219;-65
2022/06/24 03:54:52;;;;;;;15.13;7.03;;;18.10;99.90;;;18.14;100.00;100285.38;5036416;28;20222;-65
2022/06/24 03:57:40;;;;;;;15.82;6.32;;;18.10;99.90;;;18.04;100.00;100276.69;5048350;28;20281;-65
2022/06/24 04:00:29;;;;;;;20.75;7.35;;;18.00;99.90;;;18.03;100.00;100271.38;5008639;28;20210;-64
2022/06/24 04:03:17;;;;;;;16.25;7.43;;;18.00;99.90;;;18.00;100.00;100266.97;5036711;28;20222;-65
2022/06/24 04:06:05;;;;;;;21.75;8.23;;;18.00;99.90;;;17.88;100.00;100272.63;5052182;28;20228;-64
2022/06/24 04:08:54;;;;;;;14.85;7.22;;;17.90;99.90;;;17.98;100.00;100284.00;5019463;28;20210;-65
2022/06/24 04:11:42;;;;;;;19.95;7.63;;;17.90;99.90;;;17.99;100.00;100291.97;5022435;28;20206;-65
2022/06/24 04:17:37;;;;;;;16.90;6.38;;;17.90;99.90;;;18.02;100.00;100293.69;5016136;28;20186;-65
2022/06/24 04:20:25;;;;;;;17.35;6.43;;;18.00;99.90;;;17.98;100.00;100284.88;5053627;28;20237;-65
2022/06/24 04:23:13;;;;;;;14.20;6.35;;;18.00;99.90;;;17.83;100.00;100283.44;5032340;28;20241;-65
2022/06/24 04:26:01;;;;;;;13.30;5.53;;;17.90;99.90;;;17.81;100.00;100289.72;5024012;28;20214;-65
2022/06/24 04:28:51;;;;;;;18.52;9.25;;;17.90;99.90;;;17.87;100.00;100287.78;5025715;28;20694;-65
2022/06/24 04:31:39;;;;;;;15.43;9.05;;;17.90;99.90;;;17.94;100.00;100296.56;5030543;28;20218;-65
2022/06/24 04:34:27;;;;;;;15.50;9.45;;;17.90;99.90;;;17.98;100.00;100295.56;5017651;28;20215;-65
2022/06/24 04:37:15;;;;;;;15.13;10.75;;;17.90;99.90;;;17.90;100.00;100284.16;5022256;28;20223;-65
2022/06/24 04:40:12;;;;;;;16.73;10.55;;;17.90;99.90;;;17.87;100.00;100293.16;4995353;28;20206;-65
2022/06/24 04:43:00;;;;;;;15.80;14.07;;;17.90;99.90;;;17.93;100.00;100305.50;5022044;28;20230;-65
2022/06/24 04:45:48;;;;;;;19.27;17.88;;;17.90;99.90;;;17.95;100.00;100305.47;5022246;28;20218;-65
2022/06/24 04:48:37;;;;;;;23.83;21.95;;;17.90;99.90;;;17.94;100.00;100306.38;5022722;28;20202;-65
2022/06/24 04:51:28;;;;;;;24.92;22.75;;;17.80;99.90;;;17.98;100.00;100313.41;5021463;28;20234;-65
2022/06/24 04:54:16;;;;;;;25.33;23.13;;;17.90;99.90;;;17.94;100.00;100301.91;5036095;28;20211;-65
2022/06/24 04:57:05;;;;;;;30.40;28.33;;;17.80;99.90;;;17.99;100.00;100310.72;5009404;28;20584;-65
2022/06/24 04:59:53;;;;;;;30.73;28.20;;;17.90;99.90;;;18.02;100.00;100312.44;5021686;28;20207;-65
2022/06/24 05:02:42;;;;;;;30.38;28.23;;;17.90;99.90;;;17.98;100.00;100311.63;5022423;28;20233;-65
2022/06/24 05:05:30;;;;;;;39.00;36.17;;;17.90;99.90;;;18.03;100.00;100311.53;5010293;28;20600;-64
2022/06/24 05:08:18;;;;;;;36.95;34.13;;;17.90;99.90;;;18.16;100.00;100315.66;5006258;28;20227;-65
2022/06/24 05:11:09;;;;;;;36.22;34.08;;;17.90;99.90;;;18.22;100.00;100316.44;5019224;28;20202;-65
2022/06/24 05:13:57;;;;;;;36.85;34.88;;;18.00;99.90;;;18.34;100.00;100309.03;5038710;28;20191;-65
2022/06/24 05:16:45;;;;;;;42.38;40.08;;;18.10;99.90;;;18.44;100.00;100302.50;5026085;28;20224;-65
2022/06/24 05:19:33;;;;;;;43.22;40.95;;;18.20;99.90;;;18.56;100.00;100304.88;5035271;28;20203;-64
2022/06/24 05:22:22;;;;;;;44.60;42.17;;;18.30;99.90;;;18.59;100.00;100295.88;5031511;28;20246;-65
2022/06/24 05:25:10;;;;;;;44.70;41.80;;;18.30;99.90;;;18.67;100.00;100284.09;5026085;28;20206;-64
2022/06/24 05:27:58;;;;;;;44.10;42.33;;;18.40;99.90;;;18.75;100.00;100281.19;5025953;28;20198;-64
2022/06/24 05:30:54;;;;;;;24.42;23.17;;;18.50;99.90;;;18.73;100.00;100264.28;5024378;28;20199;-64
2022/06/24 05:33:45;;;;;;;57.72;54.17;;;18.50;99.90;;;18.67;100.00;100249.25;5044186;28;20214;-64
2022/06/24 05:36:34;;;;;;;36.10;33.70;;;18.50;99.90;;;18.92;100.00;100254.81;5032432;28;20218;-64
2022/06/24 05:39:22;;;;;;;68.38;64.63;;;18.60;99.90;;;19.07;100.00;100262.44;5031833;28;20199;-64
2022/06/24 05:42:10;;;;;;;47.65;44.83;;;18.70;99.90;;;19.23;100.00;100248.59;5047404;28;20218;-64
2022/06/24 05:44:58;;;;;;;73.32;69.47;;;18.80;99.90;;;19.39;100.00;100233.81;5036790;28;20211;-65
2022/06/24 05:47:47;;;;;;;79.13;74.95;;;19.00;99.90;;;19.50;100.00;100221.84;5037200;28;20206;-65
2022/06/24 05:50:39;;;;;;;74.55;70.57;;;19.10;99.90;;;19.60;100.00;100210.88;5014082;28;20203;-65
2022/06/24 05:56:43;;;;;;;102.07;97.05;;;19.40;99.90;;;20.01;100.00;100193.44;5038948;28;20218;-65
2022/06/24 05:59:37;;;;;;;96.10;91.40;;;19.60;99.90;;;20.14;100.00;100173.28;5028794;28;20198;-65
2022/06/24 06:02:25;;;;;;;127.63;121.90;;;19.70;99.90;;;20.25;100.00;100156.81;5037231;28;20230;-65
2022/06/24 06:05:14;;;;;;;131.88;125.70;;;19.80;99.90;;;20.36;100.00;100147.44;5021308;28;20202;-64
2022/06/24 06:08:02;;;;;;;124.35;118.15;;;20.00;99.90;;;20.45;100.00;100133.72;5017597;28;20207;-64
2022/06/24 06:10:50;;;;;;;86.25;82.05;;;20.10;99.90;;;20.38;100.00;100121.41;5023819;28;20203;-65
2022/06/24 06:13:40;;;;;;;96.10;91.47;;;20.10;99.90;;;20.40;100.00;100108.84;5024174;28;20225;-65
2022/06/24 06:16:29;;;;;;;110.18;101.47;;;20.10;99.90;;;20.70;100.00;100114.00;5033224;28;20603;-65
2022/06/24 06:19:17;;;;;;;91.03;83.15;;;20.30;99.90;;;20.67;100.00;100112.31;5037958;28;20202;-65
2022/06/24 06:22:05;;;;;;;57.67;52.13;;;20.40;99.90;;;20.53;100.00;100079.72;5036204;28;20233;-65
2022/06/24 06:24:53;;;;;;;84.80;79.45;;;20.50;99.90;;;20.61;100.00;100072.25;5029132;28;20197;-65
2022/06/24 06:27:41;;;;;;;84.50;77.22;;;20.40;99.90;;;20.95;100.00;100081.72;5021740;28;20214;-65
2022/06/24 06:30:30;;;;;;;58.10;49.65;;;20.50;99.90;;;20.75;100.00;100051.09;5030204;28;20222;-64
2022/06/24 06:33:19;;;;;;;55.05;49.80;;;20.60;99.90;;;20.59;100.00;100032.94;5047690;28;20257;-65
2022/06/24 06:36:12;;;;;;;76.25;69.95;;;20.50;99.90;;;20.63;100.00;100039.94;5022132;28;20213;-64
2022/06/24 06:39:00;;;;;;;70.50;64.47;;;20.50;99.90;;;20.81;100.00;100047.31;5035532;28;20210;-64
2022/06/24 06:41:48;;;;;;;66.85;61.03;;;20.50;99.90;;;21.03;100.00;100060.78;5004543;28;20250;-64
2022/06/24 06:44:36;;;;;;;66.22;62.17;;;20.70;99.90;;;21.11;100.00;100049.72;5029052;28;20248;-64
2022/06/24 06:47:24;;;;;;;76.07;69.50;;;20.80;99.90;;;21.09;100.00;100037.22;5025515;28;20210;-64
2022/06/24 06:50:13;;;;;;;63.88;58.60;;;20.90;99.90;;;21.10;100.00;100032.72;5034359;28;20221;-64
2022/06/24 06:53:02;;;;;;;56.75;50.47;;;20.90;99.90;;;21.28;100.00;100029.31;5028379;28;20234;-64
2022/06/24 06:55:50;;;;;;;63.83;58.67;;;21.00;99.90;;;21.56;100.00;100039.78;5034187;28;20229;-65
2022/06/24 06:58:38;;;;;;;64.32;57.75;;;21.10;99.90;;;21.64;100.00;100032.25;5015943;28;20209;-64
2022/06/24 07:01:27;;;;;;;65.10;59.35;;;21.30;99.90;;;21.93;100.00;100051.66;5000924;28;20221;-65
2022/06/24 07:04:15;;;;;;;54.95;50.60;;;21.50;99.90;;;21.70;100.00;100032.00;5028105;28;20202;-65
2022/06/24 07:07:04;;;;;;;62.63;56.35;;;21.50;99.90;;;22.24;100.00;100060.19;5003182;28;20202;-64
2022/06/24 07:09:54;;;;;;;57.75;52.58;;;21.70;99.90;;;22.20;100.00;100018.19;5029239;28;20225;-64
2022/06/24 07:12:42;;;;;;;54.67;50.08;;;21.90;99.90;;;22.32;100.00;100014.06;5015751;28;20245;-65
2022/06/24 07:15:30;;;;;;;54.72;50.75;;;22.00;99.90;;;22.95;100.00;100034.44;5021120;28;20226;-65
2022/06/24 07:18:18;;;;;;;63.13;56.83;;;22.30;99.90;;;23.31;100.00;100033.59;5020045;28;20209;-64
2022/06/24 07:21:06;;;;;;;63.10;56.83;;;22.70;99.90;;;22.75;100.00;99959.00;5014404;28;20205;-65
2022/06/24 07:23:55;;;;;;;55.58;49.80;;;22.80;99.90;;;22.52;100.00;99946.66;5020855;28;20203;-64
2022/06/24 07:26:43;;;;;;;53.20;47.92;;;22.60;99.90;;;22.62;100.00;99950.66;5023672;28;20558;-64
2022/06/24 07:29:36;;;;;;;54.30;49.78;;;22.50;99.90;;;22.99;100.00;99956.97;5037823;28;20228;-64
2022/06/24 07:32:24;;;;;;;59.40;53.78;;;22.70;99.90;;;23.73;100.00;100008.13;5029956;28;20233;-64
2022/06/24 07:35:12;;;;;;;56.22;50.63;;;23.10;99.90;;;23.22;100.00;99912.66;5011828;28;20210;-64
2022/06/24 07:38:20;;;;;;;48.30;43.50;;;23.20;99.90;;;22.62;100.00;99882.41;5007600;28;20202;-64
2022/06/24 07:41:09;;;;;;;52.15;37.60;;;23.00;99.90;;;22.82;100.00;99906.56;5029576;28;20213;-64
2022/06/24 07:43:58;;;;;;;43.55;29.90;;;23.00;99.90;;;22.68;100.00;99888.34;5015267;28;20222;-64
2022/06/24 07:46:46;;;;;;;44.35;29.58;;;22.90;99.90;;;22.84;100.00;99923.56;5010494;28;20214;-64
2022/06/24 07:49:35;;;;;;;46.92;25.52;;;23.00;99.90;;;22.89;100.00;99920.63;5011358;28;20224;-64
2022/06/24 07:52:23;;;;;;;44.05;22.23;;;23.10;99.90;;;22.72;100.00;99877.41;5042161;28;20229;-65
2022/06/24 07:58:18;;;;;;;41.35;19.63;;;23.00;99.90;;;22.88;100.00;99892.78;5040426;28;20220;-64
2022/06/24 08:01:06;;;;;;;36.17;19.30;;;23.10;99.90;;;22.79;100.00;99890.53;5032660;28;20202;-64
2022/06/24 08:03:54;;;;;;;37.80;21.23;;;23.10;99.90;;;22.92;100.00;99894.38;5020541;28;20206;-64
2022/06/24 08:06:48;;;;;;;39.05;16.10;;;23.20;99.90;;;23.02;100.00;99881.31;5021588;28;20205;-64
2022/06/24 08:09:37;;;;;;;36.60;13.57;;;23.40;99.90;;;23.01;100.00;99887.66;5026746;28;20194;-64
2022/06/24 08:12:25;;;;;;;26.08;12.70;;;23.40;99.90;;;23.28;100.00;99897.03;5025596;28;20232;-65
2022/06/24 08:15:16;;;;;;;37.28;12.98;;;23.50;99.90;;;23.17;100.00;99876.94;5018325;28;20225;-64
2022/06/24 08:18:04;;;;;;;27.27;9.70;;;23.60;99.90;;;23.12;100.00;99866.41;5048078;28;20822;-64
2022/06/24 08:20:53;;;;;;;34.55;10.88;;;23.60;99.90;;;22.93;100.00;99871.00;4989127;28;20209;-65
2022/06/24 08:23:41;;;;;;;39.03;13.73;;;23.50;99.90;;;22.98;100.00;99866.22;5019801;28;20240;-65
2022/06/24 08:26:29;;;;;;;34.05;12.10;;;23.40;99.90;;;22.83;100.00;99823.88;5035689;28;20221;-65
2022/06/24 08:29:18;;;;;;;37.67;11.70;;;23.30;99.90;;;22.96;100.00;99844.75;5016940;28;20212;-65
2022/06/24 08:32:06;;;;;;;34.22;12.30;;;23.40;99.90;;;22.89;100.00;99835.22;5018680;28;20238;-65
2022/06/24 08:34:55;;;;;;;33.17;12.43;;;23.40;99.90;;;23.06;100.00;99863.16;5023004;28;20217;-64
2022/06/24 08:38:03;;;;;;;35.53;12.38;;;23.30;99.90;;;23.29;100.00;99868.22;5020745;28;20586;-65
2022/06/24 08:40:54;;;;;;;38.50;13.10;;;23.50;99.90;;;23.06;100.00;99828.09;5045702;28;20374;-65
2022/06/24 08:43:47;;;;;;;27.33;10.35;;;23.50;99.90;;;23.39;100.00;99874.00;5049662;28;20243;-65
2022/06/24 08:46:39;;;;;;;35.55;11.90;;;23.60;99.90;;;23.45;100.00;99861.09;5029334;28;20222;-65
2022/06/24 08:49:28;;;;;;;36.63;14.52;;;23.70;99.90;;;23.58;100.00;99862.22;5022400;28;20665;-65
2022/06/24 08:52:19;;;;;;;37.30;15.13;;;23.80;99.90;;;23.93;100.00;99881.03;5009842;28;20713;-65
2022/06/24 08:55:08;;;;;;;33.25;10.40;;;24.00;99.90;;;24.17;100.00;99839.16;5046264;28;20209;-65
2022/06/24 08:57:56;;;;;;;4.25;3.47;;;24.30;99.90;;;23.87;100.00;99808.47;5030088;28;20217;-65
2022/06/24 09:00:44;;;;;;;23.00;8.07;;;24.40;99.90;;;23.79;100.00;99787.28;5022667;28;20225;-65
2022/06/24 09:03:33;;;;;;;24.05;9.90;;;24.50;99.90;;;23.76;100.00;99776.66;5035793;28;20228;-65
2022/06/24 09:06:21;;;;;;;18.50;8.43;;;24.40;99.90;;;23.99;100.00;99799.69;5037253;28;20211;-65
2022/06/24 09:09:10;;;;;;;31.20;12.18;;;24.40;99.90;;;24.35;100.00;99799.44;5039781;28;20206;-65
2022/06/24 09:12:02;;;;;;;38.03;12.68;;;24.60;99.90;;;24.66;100.00;99812.03;5017894;28;20230;-65
2022/06/24 09:14:50;;;;;;;26.50;11.32;;;24.80;99.90;;;24.99;100.00;99811.06;5018011;28;20221;-65
2022/06/24 09:17:39;;;;;;;36.58;18.45;;;25.00;99.90;;;25.91;100.00;99836.03;5024447;28;20704;-65
2022/06/24 09:20:32;;;;;;;39.13;19.27;;;25.40;99.90;;;25.73;100.00;99756.84;5021854;28;20213;-65
2022/06/24 09:23:21;;;;;;;34.15;13.05;;;25.70;99.90;;;25.19;100.00;99686.25;5020901;28;20217;-65
2022/06/24 09:26:12;;;;;;;31.63;12.13;;;25.70;99.90;;;25.52;100.00;99738.25;5020662;28;20706;-65
2022/06/24 09:29:07;;;;;;;39.28;18.23;;;25.80;99.90;;;26.22;99.37;99757.25;5020881;28;20214;-65
2022/06/24 09:32:05;;;;;;;40.88;22.75;;;26.30;99.90;;;26.13;95.15;99673.84;5018399;28;20230;-65
2022/06/24 09:35:06;;;;;;;36.75;19.67;;;26.90;99.90;;;26.24;95.08;99679.41;5018963;28;20206;-65
2022/06/24 09:37:55;;;;;;;40.28;18.15;;;27.00;99.90;;;25.78;95.27;99614.72;5018183;28;20240;-65
2022/06/24 09:40:43;;;;;;;40.45;22.15;;;27.00;99.90;;;26.18;92.79;99631.03;5032349;28;20211;-65
2022/06/24 09:43:32;;;;;;;37.38;20.58;;;27.20;99.90;;;25.82;91.72;99572.06;5023133;28;20620;-65
2022/06/24 09:46:23;;;;;;;42.00;36.22;;;27.00;99.90;;;26.00;95.38;99613.28;5024487;28;20202;-65
2022/06/24 09:49:13;;;;;;;117.40;108.60;;;27.10;99.90;;;26.36;93.06;99634.38;5029466;28;20208;-65
2022/06/24 09:52:04;;;;;;;83.90;76.13;;;27.30;99.90;;;26.16;93.46;99595.06;5028084;28;20228;-65
2022/06/24 09:54:52;;;;;;;43.75;39.88;;;27.40;99.90;;;26.33;94.69;99611.06;5028659;28;20529;-65
2022/06/24 09:57:41;;;;;;;45.08;31.45;;;27.40;99.90;;;26.91;95.52;99685.63;5014546;28;20229;-65
2022/06/24 10:00:41;;;;;;;37.83;22.60;;;27.70;99.90;;;26.80;90.77;99596.00;5013601;28;20201;-65
2022/06/24 10:03:30;;;;;;;34.65;15.00;;;28.20;99.90;;;26.25;90.92;99487.84;5026209;28;20222;-65
2022/06/24 10:06:20;;;;;;;39.65;17.63;;;28.30;99.90;;;26.95;89.29;99572.34;5029917;28;20205;-65
2022/06/24 10:09:08;;;;;;;37.35;17.48;;;28.10;99.90;;;26.95;86.77;99521.66;5020757;28;20206;-65
2022/06/24 10:11:58;;;;;;;47.75;32.90;;;28.10;99.90;;;27.14;88.74;99536.63;5036884;28;20237;-65
2022/06/24 10:14:46;;;;;;;60.65;55.10;;;28.20;99.90;;;28.07;89.04;99617.47;5029778;28;20222;-65
2022/06/24 10:17:36;;;;;;;70.32;63.13;;;28.40;99.90;;;26.96;87.65;99447.41;5026342;28;20247;-65
2022/06/24 10:20:25;;;;;;;77.47;71.50;;;28.40;99.90;;;27.47;90.55;99572.16;5026163;28;20202;-65
2022/06/24 10:23:40;;;;;;;126.05;118.00;;;28.10;99.90;;;26.85;86.68;99422.06;5018835;28;20234;-64
2022/06/24 10:26:34;;;;;;;57.17;46.28;;;28.00;99.90;;;26.90;86.95;99442.44;5016519;28;20218;-65
2022/06/24 10:29:28;;;;;;;43.08;22.45;;;27.70;99.90;;;26.94;86.03;99414.09;5015871;28;20214;-65
2022/06/24 10:32:16;;;;;;;37.85;11.25;;;28.20;99.90;;;26.53;87.27;99372.91;5035201;28;20237;-65
2022/06/24 10:35:06;;;;;;;35.83;8.18;;;27.70;99.90;;;25.77;89.71;99295.28;5043731;28;20214;-65
2022/06/24 10:37:54;;;;;;;25.17;5.95;;;27.30;99.90;;;25.35;89.55;99251.28;5033024;28;20233;-64
2022/06/24 10:40:44;;;;;;;30.15;6.82;;;27.10;99.90;;;25.72;91.63;99338.94;5047156;28;20210;-65
2022/06/24 10:43:42;;;;;;;36.08;8.10;;;26.60;99.90;;;25.81;90.44;99329.28;5018843;28;20217;-65
2022/06/24 10:46:31;;;;;;;39.42;8.40;;;27.40;99.90;;;25.63;91.16;99298.94;5031502;28;20686;-65
2022/06/24 10:49:19;;;;;;;38.45;8.45;;;27.30;99.90;;;26.27;86.61;99310.59;5045417;28;20206;-64
2022/06/24 10:52:33;;;;;;;33.35;7.60;;;27.80;99.90;;;27.30;84.79;99409.63;4988324;28;20233;-64
2022/06/24 10:55:28;;;;;;;30.08;6.55;;;28.20;99.90;;;26.77;83.05;99293.28;5012320;28;20225;-64
2022/06/24 10:58:17;;;;;;;35.45;7.63;;;28.30;99.90;;;26.77;84.42;99289.72;5050110;28;20233;-64
2022/06/24 11:01:06;;;;;;;25.42;6.22;;;28.20;99.90;;;27.44;84.64;99368.75;5041571;28;20209;-65
2022/06/24 11:03:55;;;;;;;14.95;4.45;;;28.30;99.90;;;27.48;84.36;99344.94;5033347;28;20225;-64
2022/06/24 11:07:09;;;;;;;23.50;6.13;;;28.50;99.90;;;27.40;83.48;99288.50;5021949;28;20206;-64
2022/06/24 11:09:57;;;;;;;35.83;9.35;;;28.50;99.90;;;28.05;89.10;99412.84;5039493;28;20216;-64
2022/06/24 11:12:58;;;;;;;37.15;11.48;;;28.60;99.90;;;28.61;88.15;99453.72;5032328;28;20230;-65
2022/06/24 11:16:01;;;;;;;40.58;15.48;;;28.80;99.90;;;29.13;80.08;99379.56;5018154;28;20226;-65
2022/06/24 11:18:52;;;;;;;46.33;28.40;;;29.50;99.90;;;28.81;77.29;99281.53;5021325;28;20217;-64
2022/06/24 11:21:48;;;;;;;47.55;36.80;;;29.80;99.90;;;28.98;77.03;99280.16;5015955;28;20206;-65
2022/06/24 11:24:39;;;;;;;95.40;86.43;;;29.90;99.90;;;29.55;78.61;99328.75;5016425;28;20213;-64
2022/06/24 11:27:37;;;;;;;99.93;91.75;;;30.30;99.90;;;28.45;77.77;99149.50;5042306;28;20209;-64
2022/06/24 11:30:25;;;;;;;145.15;134.13;;;30.30;99.90;;;29.33;79.94;99295.31;5015757;28;20202;-65
2022/06/24 14:47:04;;;;;;;3.13;0.52;;;28.30;99.90;;;27.27;79.56;98555.75;1304439;22;20500;-77
2022/06/24 14:49:52;;;;;;;6.55;1.35;;;28.20;99.90;;;27.07;79.39;98543.97;5012145;28;20227;-77
2022/06/24 14:52:40;;;;;;;4.22;1.00;;;28.10;99.90;;;27.03;81.38;98576.94;5012845;28;20222;-77
2022/06/24 14:55:29;;;;;;;7.38;1.55;;;27.80;99.90;;;27.05;82.53;98618.34;5008336;28;20303;-77
2022/06/24 14:58:17;;;;;;;4.70;1.05;;;27.70;99.90;;;26.57;83.43;98580.91;5013711;28;20226;-77
2022/06/24 15:01:05;;;;;;;10.73;2.17;;;27.40;99.90;;;26.40;84.49;98617.56;5016751;28;20206;-77